Time;durP1;ratioP1;P1;durP2;ratioP2;P2;SDS_P1;SDS_P2;PMS_P1;PMS_P2;Temp;Humidity;BMP_temperature;BMP_pressure;BME280_temperature;BME280_humidity;BME280_pressure;Samples;Min_cycle;Max_cycle;Signal;HPM_P1;HPM_P2
2024/01/21 00:00:41;;;;;;;8.43;1.55;;;34.10;80.50;;;;;;4942305;29;20084;-71
2024/01/21 00:03:09;;;;;;;9.18;1.90;;;34.40;78.10;;;;;;4954110;28;20042;-72
2024/01/21 00:05:36;;;;;;;4.85;1.80;;;34.90;74.10;;;;;;4934252;29;20143;-71
2024/01/21 00:08:04;;;;;;;6.30;1.63;;;35.00;74.40;;;;;;4937146;29;20023;-72
2024/01/21 00:10:31;;;;;;;9.65;2.10;;;34.60;72.40;;;;;;4956539;28;20023;-71
2024/01/21 00:12:58;;;;;;;7.53;1.70;;;34.00;73.50;;;;;;4935687;28;20024;-73
2024/01/21 00:15:26;;;;;;;5.57;1.58;;;34.20;71.20;;;;;;4949611;29;20035;-71
2024/01/21 00:17:53;;;;;;;7.68;1.63;;;34.50;73.00;;;;;;4943264;28;20474;-72
2024/01/21 00:20:20;;;;;;;9.43;2.78;;;34.60;73.30;;;;;;4934088;29;20059;-71
2024/01/21 00:22:48;;;;;;;5.70;1.70;;;34.80;73.40;;;;;;4934902;29;20027;-71
2024/01/21 00:25:15;;;;;;;9.00;1.65;;;34.80;73.10;;;;;;4939325;29;20035;-71
2024/01/21 00:27:43;;;;;;;5.15;1.83;;;35.10;72.00;;;;;;4939207;29;20031;-71
2024/01/21 00:30:10;;;;;;;9.30;1.95;;;35.10;70.30;;;;;;4934964;28;20067;-71
2024/01/21 00:32:37;;;;;;;4.80;1.35;;;35.30;68.50;;;;;;4937223;29;20032;-71
2024/01/21 00:35:05;;;;;;;4.53;1.55;;;35.50;68.30;;;;;;4932734;28;20047;-71
2024/01/21 00:37:33;;;;;;;8.32;1.50;;;35.30;66.90;;;;;;4935368;28;20028;-72
2024/01/21 00:40:00;;;;;;;4.95;1.38;;;35.50;65.50;;;;;;4935278;28;20087;-73
2024/01/21 00:42:27;;;;;;;6.65;1.60;;;35.50;65.80;;;;;;4946441;29;20435;-73
2024/01/21 00:44:55;;;;;;;6.97;1.50;;;35.90;63.20;;;;;;4944938;28;20378;-72
2024/01/21 00:47:22;;;;;;;3.30;1.00;;;36.30;61.30;;;;;;4948632;28;20039;-73
2024/01/21 00:49:49;;;;;;;4.18;1.20;;;36.70;56.80;;;;;;4938849;28;20042;-73
2024/01/21 00:52:17;;;;;;;3.72;1.30;;;36.80;58.60;;;;;;4940527;28;20035;-73
2024/01/21 00:54:44;;;;;;;3.53;1.00;;;37.10;56.60;;;;;;4935051;29;20055;-73
2024/01/21 00:57:11;;;;;;;5.10;1.15;;;37.30;56.20;;;;;;4934172;29;20063;-72
2024/01/21 00:59:39;;;;;;;3.40;1.08;;;37.40;57.10;;;;;;4941469;29;20474;-71
2024/01/21 01:02:06;;;;;;;5.82;0.98;;;37.50;55.00;;;;;;4936238;29;20030;-72
2024/01/21 01:04:33;;;;;;;5.60;1.00;;;37.60;54.40;;;;;;4940721;29;20389;-72
2024/01/21 01:07:01;;;;;;;7.47;1.65;;;37.80;54.90;;;;;;4933928;29;20058;-72
2024/01/21 01:09:28;;;;;;;6.45;1.30;;;37.90;54.20;;;;;;4935554;29;20663;-70
2024/01/21 01:11:55;;;;;;;9.30;1.40;;;37.80;55.40;;;;;;4936419;29;20031;-71
2024/01/21 01:14:23;;;;;;;4.57;1.30;;;37.90;57.10;;;;;;4939645;28;20030;-71
2024/01/21 01:16:50;;;;;;;3.88;1.33;;;38.10;51.90;;;;;;4933649;28;20086;-71
2024/01/21 01:19:18;;;;;;;4.13;1.10;;;37.90;53.60;;;;;;4933312;29;20119;-71
2024/01/21 01:21:45;;;;;;;2.70;1.00;;;37.80;52.60;;;;;;4946280;28;20055;-72
2024/01/21 01:24:12;;;;;;;5.70;1.02;;;37.80;51.90;;;;;;4948216;28;20028;-71
2024/01/21 01:26:40;;;;;;;4.78;1.08;;;37.80;54.30;;;;;;4934617;29;20066;-73
2024/01/21 01:29:07;;;;;;;4.85;1.20;;;37.50;52.50;;;;;;4936970;28;20036;-71
2024/01/21 01:31:35;;;;;;;4.05;1.10;;;37.70;52.70;;;;;;4937525;29;20027;-71
2024/01/21 01:34:02;;;;;;;4.38;1.08;;;37.90;51.90;;;;;;4939131;28;20047;-73
2024/01/21 01:36:30;;;;;;;6.03;0.98;;;38.10;51.60;;;;;;4933939;29;20371;-73
2024/01/21 01:38:57;;;;;;;5.43;1.40;;;38.20;52.50;;;;;;4934010;29;20070;-73
2024/01/21 01:41:25;;;;;;;3.25;1.23;;;38.40;52.40;;;;;;4933408;29;20027;-72
2024/01/21 01:43:52;;;;;;;4.30;1.20;;;38.50;50.40;;;;;;4934068;29;20488;-73
2024/01/21 01:46:20;;;;;;;2.95;0.77;;;37.90;50.70;;;;;;4942342;29;20040;-72
2024/01/21 01:48:47;;;;;;;10.52;1.13;;;38.10;50.50;;;;;;4938023;29;20036;-71
2024/01/21 01:51:15;;;;;;;6.57;1.10;;;38.50;51.40;;;;;;4938782;28;20365;-73
2024/01/21 01:53:43;;;;;;;4.05;1.13;;;38.70;49.70;;;;;;4940429;28;20127;-72
2024/01/21 01:56:11;;;;;;;4.13;1.20;;;38.60;50.10;;;;;;4942610;28;20031;-73
2024/01/21 01:58:40;;;;;;;5.50;1.15;;;38.70;49.20;;;;;;4942291;29;20032;-72
2024/01/21 02:01:07;;;;;;;2.28;0.88;;;38.90;50.40;;;;;;4945314;28;20099;-71
2024/01/21 02:03:35;;;;;;;3.58;1.00;;;39.10;50.20;;;;;;4947595;28;20039;-72
2024/01/21 02:06:02;;;;;;;4.15;0.90;;;38.90;48.20;;;;;;4943322;28;20043;-72
2024/01/21 02:08:29;;;;;;;5.85;0.90;;;39.00;49.80;;;;;;4943463;28;20020;-72
2024/01/21 02:10:57;;;;;;;5.57;0.88;;;39.30;49.10;;;;;;4943704;28;20110;-72
2024/01/21 02:13:24;;;;;;;3.97;1.10;;;39.40;49.20;;;;;;4942018;28;20416;-72
2024/01/21 02:15:51;;;;;;;5.43;1.35;;;39.10;48.60;;;;;;4943852;28;20028;-72
2024/01/21 02:18:19;;;;;;;4.20;1.05;;;39.10;48.20;;;;;;4949862;28;20027;-72
2024/01/21 02:20:46;;;;;;;4.85;1.23;;;38.80;47.90;;;;;;4940286;28;20035;-72
2024/01/21 02:23:13;;;;;;;6.63;1.00;;;38.60;49.60;;;;;;4946204;28;20485;-71
2024/01/21 02:25:41;;;;;;;3.67;0.93;;;39.20;48.90;;;;;;4943724;28;20050;-73
2024/01/21 02:28:08;;;;;;;5.07;1.30;;;39.40;47.40;;;;;;4947832;28;20039;-73
2024/01/21 02:30:40;;;;;;;4.68;0.93;;;39.50;47.50;;;;;;4948767;28;20113;-71
2024/01/21 02:33:13;;;;;;;3.83;0.70;;;39.60;45.40;;;;;;4942101;28;20020;-72
2024/01/21 02:35:40;;;;;;;2.92;0.70;;;39.90;46.30;;;;;;4941784;28;20027;-72
2024/01/21 02:38:08;;;;;;;3.80;0.95;;;39.90;45.60;;;;;;4940051;28;20032;-73
2024/01/21 02:40:38;;;;;;;2.13;0.70;;;39.70;45.70;;;;;;4938125;28;20054;-72
2024/01/21 02:43:07;;;;;;;3.42;0.70;;;39.70;45.40;;;;;;4935733;28;20114;-72
2024/01/21 02:45:37;;;;;;;4.72;0.60;;;39.90;45.30;;;;;;4942972;28;20039;-72
2024/01/21 02:48:05;;;;;;;2.50;0.63;;;40.20;45.00;;;;;;4936432;28;20035;-72
2024/01/21 02:50:33;;;;;;;6.70;1.02;;;40.30;43.50;;;;;;4938756;28;20082;-72
2024/01/21 02:53:01;;;;;;;2.13;0.70;;;40.30;42.90;;;;;;4942421;28;20054;-72
2024/01/21 02:55:28;;;;;;;4.80;0.85;;;40.30;42.40;;;;;;4937832;28;20032;-72
2024/01/21 02:57:59;;;;;;;5.20;0.82;;;40.60;43.00;;;;;;4943913;29;20408;-70
2024/01/21 03:00:26;;;;;;;2.95;0.70;;;40.60;42.10;;;;;;4937899;28;20059;-71
2024/01/21 03:02:54;;;;;;;2.78;0.75;;;40.80;41.80;;;;;;4943234;28;20035;-71
2024/01/21 03:05:21;;;;;;;3.70;0.70;;;40.80;41.70;;;;;;4937466;28;20040;-71
2024/01/21 03:07:49;;;;;;;2.75;0.73;;;40.80;42.50;;;;;;4940999;28;20034;-72
2024/01/21 03:10:16;;;;;;;5.25;0.70;;;40.30;41.90;;;;;;4942561;28;20215;-71
2024/01/21 03:12:43;;;;;;;4.53;0.77;;;40.60;44.40;;;;;;4947195;28;20027;-71
2024/01/21 03:15:11;;;;;;;5.30;0.90;;;40.90;45.00;;;;;;4937056;28;20117;-72
2024/01/21 03:17:38;;;;;;;2.53;0.68;;;41.20;42.00;;;;;;4940209;28;20040;-73
2024/01/21 03:20:06;;;;;;;6.95;0.70;;;41.20;41.40;;;;;;4940478;28;20041;-72
2024/01/21 03:22:33;;;;;;;1.75;0.77;;;41.00;42.00;;;;;;4938833;28;20051;-71
2024/01/21 03:25:01;;;;;;;2.88;0.50;;;40.90;41.80;;;;;;4939464;28;20067;-71
2024/01/21 03:27:28;;;;;;;2.30;0.55;;;41.20;41.30;;;;;;4940353;28;20114;-71
2024/01/21 03:29:56;;;;;;;1.73;0.57;;;41.40;41.20;;;;;;4947485;28;20027;-70
2024/01/21 03:32:23;;;;;;;1.80;0.60;;;41.60;41.50;;;;;;4948385;28;20031;-71
2024/01/21 03:34:51;;;;;;;4.13;0.57;;;41.50;40.70;;;;;;4941363;28;20027;-72
2024/01/21 03:37:18;;;;;;;3.53;0.82;;;41.40;41.10;;;;;;4948475;28;20027;-72
2024/01/21 03:39:45;;;;;;;2.88;0.50;;;41.40;42.20;;;;;;4944873;28;20082;-71
2024/01/21 03:42:13;;;;;;;4.57;0.60;;;41.70;41.50;;;;;;4939970;28;20082;-72
2024/01/21 03:44:40;;;;;;;1.85;0.40;;;41.60;40.00;;;;;;4937677;28;20036;-71
2024/01/21 03:47:08;;;;;;;3.90;0.40;;;41.50;38.20;;;;;;4934705;28;20047;-72
2024/01/21 03:49:36;;;;;;;1.50;0.40;;;41.70;40.00;;;;;;4937426;28;20544;-72
2024/01/21 03:52:04;;;;;;;3.42;0.65;;;41.90;36.80;;;;;;4943603;28;20034;-71
2024/01/21 03:54:32;;;;;;;3.35;0.52;;;42.10;37.20;;;;;;4940390;28;20087;-72
2024/01/21 03:56:59;;;;;;;4.07;0.60;;;42.10;37.20;;;;;;4936394;29;20058;-72
2024/01/21 03:59:27;;;;;;;1.58;0.50;;;42.10;35.90;;;;;;4939202;29;20027;-73
2024/01/21 04:01:54;;;;;;;2.15;0.80;;;42.10;36.90;;;;;;4935341;29;20027;-72
2024/01/21 04:04:21;;;;;;;2.50;0.35;;;42.40;36.40;;;;;;4937137;29;20035;-72
2024/01/21 04:06:49;;;;;;;2.60;0.40;;;42.20;35.90;;;;;;4951542;28;20485;-70
2024/01/21 04:09:22;;;;;;;2.58;0.50;;;41.50;35.30;;;;;;4935569;28;20067;-72
2024/01/21 04:11:50;;;;;;;1.42;0.25;;;41.30;35.70;;;;;;4937512;29;20034;-70
2024/01/21 04:14:18;;;;;;;2.50;0.50;;;41.30;36.10;;;;;;4935674;29;20466;-70
2024/01/21 04:16:45;;;;;;;1.35;0.38;;;41.50;35.80;;;;;;4944904;29;20035;-70
2024/01/21 04:19:13;;;;;;;1.60;0.30;;;41.70;34.90;;;;;;4943562;28;20477;-71
2024/01/21 04:21:40;;;;;;;2.13;0.40;;;41.70;34.20;;;;;;4944884;28;20038;-72
2024/01/21 04:24:08;;;;;;;2.67;0.43;;;41.60;34.10;;;;;;4948937;28;20460;-73
2024/01/21 04:26:35;;;;;;;1.10;0.40;;;41.50;34.00;;;;;;4939209;28;20039;-72
2024/01/21 04:29:02;;;;;;;1.73;0.73;;;41.60;34.40;;;;;;4935478;29;20070;-72
2024/01/21 04:31:30;;;;;;;3.58;0.45;;;41.50;34.00;;;;;;4938262;29;20027;-72
2024/01/21 04:33:57;;;;;;;3.13;0.65;;;41.50;34.20;;;;;;4950892;28;20122;-71
2024/01/21 04:36:24;;;;;;;1.20;0.38;;;41.50;34.40;;;;;;4934293;29;20024;-67
2024/01/21 04:38:53;;;;;;;3.10;0.40;;;41.20;34.10;;;;;;4939260;29;20016;-68
2024/01/21 04:41:20;;;;;;;2.70;0.60;;;41.00;34.30;;;;;;4938366;28;20024;-68
2024/01/21 04:43:48;;;;;;;2.58;0.60;;;41.00;34.30;;;;;;4935825;29;20027;-69
2024/01/21 04:46:15;;;;;;;3.38;0.40;;;40.80;32.90;;;;;;4934684;29;20065;-70
2024/01/21 04:48:42;;;;;;;1.58;0.40;;;40.80;32.70;;;;;;4934383;29;20024;-69
2024/01/21 04:51:13;;;;;;;1.13;0.30;;;40.80;32.80;;;;;;4935435;29;20038;-69
2024/01/21 04:53:42;;;;;;;5.03;0.45;;;40.90;33.20;;;;;;4946390;28;20053;-69
2024/01/21 04:56:17;;;;;;;2.83;0.52;;;41.00;33.70;;;;;;4936114;29;20110;-67
2024/01/21 04:58:48;;;;;;;3.58;0.68;;;41.20;32.70;;;;;;4937349;28;20040;-69
2024/01/21 05:01:17;;;;;;;4.65;0.85;;;41.30;33.70;;;;;;4936174;28;20071;-68
2024/01/21 05:03:44;;;;;;;2.25;0.50;;;41.50;33.80;;;;;;4946069;28;20024;-68
2024/01/21 05:06:11;;;;;;;1.70;0.50;;;41.50;33.50;;;;;;4937148;29;20032;-69
2024/01/21 05:08:39;;;;;;;3.25;0.45;;;41.30;33.30;;;;;;4940351;28;20035;-68
2024/01/21 05:11:06;;;;;;;2.40;0.55;;;41.40;32.30;;;;;;4935115;28;20031;-69
2024/01/21 05:13:33;;;;;;;3.15;0.32;;;40.90;32.50;;;;;;4942582;28;20035;-69
2024/01/21 05:16:01;;;;;;;1.38;0.50;;;40.80;32.40;;;;;;4937344;29;20384;-69
2024/01/21 05:18:28;;;;;;;3.63;0.40;;;40.60;32.50;;;;;;4939775;28;20055;-71
2024/01/21 05:20:56;;;;;;;3.25;0.52;;;40.80;32.60;;;;;;4939771;28;20114;-71
2024/01/21 05:23:23;;;;;;;1.17;0.50;;;40.90;32.60;;;;;;4934145;28;20067;-71
2024/01/21 05:25:52;;;;;;;7.30;0.75;;;41.00;32.70;;;;;;4949286;28;20066;-72
2024/01/21 05:28:20;;;;;;;4.18;0.80;;;41.10;33.10;;;;;;4935753;28;20043;-71
2024/01/21 05:30:47;;;;;;;2.45;0.35;;;40.90;33.00;;;;;;4942601;28;20082;-69
2024/01/21 05:33:14;;;;;;;1.13;0.25;;;40.70;32.90;;;;;;4939319;28;20020;-69
2024/01/21 05:35:42;;;;;;;1.83;0.40;;;40.60;32.90;;;;;;4960848;28;20161;-69
2024/01/21 05:38:09;;;;;;;3.78;0.52;;;40.30;32.40;;;;;;4941249;28;20031;-68
2024/01/21 05:40:36;;;;;;;3.33;0.40;;;40.30;33.30;;;;;;4931955;28;20047;-69
2024/01/21 05:43:04;;;;;;;3.30;0.50;;;40.50;33.20;;;;;;4939228;28;20062;-70
2024/01/21 05:45:31;;;;;;;1.15;0.40;;;40.60;33.30;;;;;;4938254;28;20050;-70
2024/01/21 05:47:58;;;;;;;2.03;0.60;;;40.60;33.80;;;;;;4938647;28;20063;-70
2024/01/21 05:50:26;;;;;;;0.63;0.20;;;40.70;33.40;;;;;;4950062;28;20027;-69
2024/01/21 05:52:53;;;;;;;3.20;0.40;;;40.50;33.90;;;;;;4936724;28;20051;-70
2024/01/21 05:55:21;;;;;;;1.58;0.30;;;40.50;33.20;;;;;;4938088;29;20039;-70
2024/01/21 05:57:48;;;;;;;1.65;0.70;;;40.50;33.20;;;;;;4943092;29;20039;-69
2024/01/21 06:00:16;;;;;;;3.03;0.65;;;40.50;33.60;;;;;;4936781;28;20024;-69
2024/01/21 06:02:44;;;;;;;4.15;0.73;;;40.60;33.50;;;;;;4938940;28;20082;-68
2024/01/21 06:05:12;;;;;;;1.88;0.40;;;40.70;34.30;;;;;;4934742;28;20055;-70
2024/01/21 06:07:39;;;;;;;1.23;0.40;;;40.70;33.50;;;;;;4943461;29;20134;-70
2024/01/21 06:10:07;;;;;;;2.58;0.50;;;40.40;33.20;;;;;;4933268;29;20026;-72
2024/01/21 06:12:34;;;;;;;2.63;0.20;;;40.20;33.80;;;;;;4935586;29;20028;-71
2024/01/21 06:15:01;;;;;;;2.78;0.60;;;40.20;33.50;;;;;;4937009;29;20028;-70
2024/01/21 06:17:29;;;;;;;5.63;0.60;;;40.20;34.10;;;;;;4938964;28;20036;-71
2024/01/21 06:19:57;;;;;;;2.47;0.50;;;40.40;34.30;;;;;;4934912;29;20481;-71
2024/01/21 06:22:24;;;;;;;4.18;0.50;;;40.30;33.10;;;;;;4936020;29;20024;-71
2024/01/21 06:24:52;;;;;;;3.63;0.70;;;40.10;33.70;;;;;;4947677;29;20031;-71
2024/01/21 06:27:20;;;;;;;2.30;0.50;;;40.00;33.70;;;;;;4936329;28;20119;-73
2024/01/21 06:29:48;;;;;;;1.50;0.65;;;40.00;34.00;;;;;;4936191;29;20046;-72
2024/01/21 06:32:15;;;;;;;3.13;0.55;;;40.20;33.80;;;;;;4974131;28;20076;-72
2024/01/21 06:34:42;;;;;;;3.92;0.77;;;40.20;34.20;;;;;;4951047;28;20367;-73
2024/01/21 06:37:10;;;;;;;2.28;0.57;;;40.30;34.20;;;;;;4957090;28;20479;-72
2024/01/21 06:39:37;;;;;;;4.15;0.40;;;40.20;33.90;;;;;;4936405;29;20107;-74
2024/01/21 06:42:06;;;;;;;2.13;0.55;;;40.00;33.90;;;;;;4949214;28;20023;-71
2024/01/21 06:44:37;;;;;;;2.35;0.65;;;39.80;34.20;;;;;;4938999;28;20079;-72
2024/01/21 06:47:04;;;;;;;4.00;0.35;;;39.60;34.40;;;;;;4941009;28;20077;-73
2024/01/21 06:49:32;;;;;;;1.58;0.52;;;39.60;34.30;;;;;;4936727;28;20425;-71
2024/01/21 06:51:59;;;;;;;3.45;0.30;;;39.60;34.10;;;;;;4945025;28;20035;-71
2024/01/21 06:54:27;;;;;;;4.28;0.50;;;39.70;34.00;;;;;;4941683;28;20039;-72
2024/01/21 06:56:54;;;;;;;3.90;0.50;;;39.70;34.00;;;;;;4940652;28;20034;-72
2024/01/21 06:59:22;;;;;;;2.08;0.32;;;39.60;34.00;;;;;;4937159;28;20508;-72
2024/01/21 07:01:50;;;;;;;1.48;0.52;;;39.60;33.80;;;;;;4949430;29;20148;-73
2024/01/21 07:04:21;;;;;;;3.05;0.85;;;39.80;34.50;;;;;;4935790;29;20032;-73
2024/01/21 07:06:48;;;;;;;1.13;0.50;;;39.90;34.60;;;;;;4951474;28;20050;-72
2024/01/21 07:09:15;;;;;;;2.22;0.40;;;39.90;33.30;;;;;;4947255;29;20094;-72
2024/01/21 07:11:43;;;;;;;2.92;0.60;;;39.70;33.70;;;;;;4944759;28;20532;-73
2024/01/21 07:14:10;;;;;;;4.20;0.40;;;39.70;33.10;;;;;;4953766;28;20031;-72
2024/01/21 07:16:38;;;;;;;2.78;0.40;;;39.60;32.90;;;;;;4952082;28;20468;-72
2024/01/21 07:19:05;;;;;;;3.67;0.35;;;39.60;33.00;;;;;;4938765;28;20078;-73
2024/01/21 07:21:32;;;;;;;7.03;0.45;;;39.50;33.00;;;;;;4935208;29;20103;-73
2024/01/21 07:24:00;;;;;;;3.30;0.65;;;39.40;33.30;;;;;;4937538;29;20034;-72
2024/01/21 07:26:28;;;;;;;2.30;0.30;;;39.40;33.10;;;;;;4945497;29;20039;-73
2024/01/21 07:28:55;;;;;;;3.63;0.60;;;39.30;33.00;;;;;;4939317;29;20034;-73
2024/01/21 07:31:23;;;;;;;3.20;0.73;;;39.40;33.60;;;;;;4949212;28;20715;-72
2024/01/21 07:33:50;;;;;;;4.47;0.60;;;39.40;33.30;;;;;;4937361;28;20024;-72
2024/01/21 07:36:17;;;;;;;4.47;0.45;;;39.20;33.20;;;;;;4942635;29;20127;-72
2024/01/21 07:38:45;;;;;;;2.83;0.38;;;39.20;33.20;;;;;;4936421;29;20028;-72
2024/01/21 07:41:13;;;;;;;3.45;0.73;;;39.10;33.00;;;;;;4935212;29;20075;-73
2024/01/21 07:43:40;;;;;;;1.63;0.32;;;39.00;33.30;;;;;;4934332;29;20028;-72
2024/01/21 07:46:08;;;;;;;2.97;0.30;;;38.90;33.20;;;;;;4940505;29;20050;-72
2024/01/21 07:48:36;;;;;;;2.25;0.40;;;38.80;33.50;;;;;;4934737;29;20028;-72
2024/01/21 07:51:03;;;;;;;1.52;0.50;;;38.70;33.80;;;;;;4937350;29;20848;-73
2024/01/21 07:53:30;;;;;;;0.90;0.30;;;38.70;33.70;;;;;;4946869;28;20067;-73
2024/01/21 07:55:58;;;;;;;1.58;0.50;;;38.60;33.50;;;;;;4935220;29;20110;-73
2024/01/21 07:58:25;;;;;;;3.13;0.40;;;38.60;33.60;;;;;;4935782;29;20028;-74
2024/01/21 08:00:53;;;;;;;5.25;0.65;;;38.60;34.00;;;;;;4938997;29;20031;-73
2024/01/21 08:03:20;;;;;;;4.65;0.50;;;38.50;33.90;;;;;;4936836;28;20078;-71
2024/01/21 08:05:47;;;;;;;2.45;0.45;;;38.50;33.60;;;;;;4934842;28;20060;-72
2024/01/21 08:08:15;;;;;;;1.63;0.50;;;38.40;34.00;;;;;;4943351;28;20477;-72
2024/01/21 08:10:42;;;;;;;2.03;0.30;;;38.20;34.20;;;;;;4944834;29;20031;-72
2024/01/21 08:13:09;;;;;;;3.60;0.50;;;38.10;34.70;;;;;;4941853;28;20073;-72
2024/01/21 08:15:37;;;;;;;1.40;0.30;;;37.90;34.50;;;;;;4945389;28;20055;-72
2024/01/21 08:18:05;;;;;;;1.95;0.40;;;37.80;34.70;;;;;;4940205;28;20059;-72
2024/01/21 08:20:33;;;;;;;1.15;0.30;;;37.80;35.00;;;;;;4955847;28;20038;-73
2024/01/21 08:23:01;;;;;;;1.83;0.40;;;37.70;35.00;;;;;;4950739;28;20477;-72
2024/01/21 08:25:29;;;;;;;3.78;0.43;;;37.60;35.20;;;;;;4938612;28;20385;-73
2024/01/21 08:27:56;;;;;;;2.70;0.40;;;37.50;35.40;;;;;;4946653;28;20382;-74
2024/01/21 08:30:24;;;;;;;4.45;0.60;;;37.40;35.50;;;;;;4938062;28;20038;-73
2024/01/21 08:32:51;;;;;;;4.32;0.30;;;37.40;35.60;;;;;;4938415;29;20043;-73
2024/01/21 08:35:20;;;;;;;1.85;0.40;;;37.20;36.20;;;;;;4941210;29;20053;-73
2024/01/21 08:37:50;;;;;;;3.13;0.35;;;37.00;36.30;;;;;;4941568;29;20066;-73
2024/01/21 08:40:17;;;;;;;2.92;0.43;;;36.80;36.40;;;;;;4936091;29;20130;-74
2024/01/21 08:42:45;;;;;;;2.63;0.30;;;36.70;36.60;;;;;;4944084;28;20457;-72
2024/01/21 08:45:12;;;;;;;1.80;0.50;;;36.50;36.60;;;;;;4942753;28;20043;-72
2024/01/21 08:47:40;;;;;;;1.23;0.20;;;36.50;36.70;;;;;;4940923;29;20031;-72
2024/01/21 08:50:07;;;;;;;4.80;0.47;;;36.30;36.70;;;;;;4950394;28;20122;-72
2024/01/21 08:52:34;;;;;;;1.67;0.25;;;36.30;36.90;;;;;;4934020;29;20047;-72
2024/01/21 08:55:04;;;;;;;3.85;0.60;;;36.20;37.20;;;;;;4951878;28;20042;-71
2024/01/21 08:57:31;;;;;;;3.97;0.50;;;36.30;36.90;;;;;;4934529;28;20020;-72
2024/01/21 08:59:59;;;;;;;2.95;0.40;;;36.20;37.10;;;;;;4945207;28;20031;-72
2024/01/21 09:02:26;;;;;;;5.95;0.60;;;36.20;37.30;;;;;;4938625;29;20031;-72
2024/01/21 09:04:54;;;;;;;3.58;0.50;;;36.10;37.30;;;;;;4934470;29;20633;-73
2024/01/21 09:07:21;;;;;;;2.80;0.40;;;36.00;37.20;;;;;;4934790;29;20040;-75
2024/01/21 09:09:48;;;;;;;1.25;0.47;;;35.90;37.50;;;;;;4940602;29;20046;-77
2024/01/21 09:12:16;;;;;;;2.10;0.32;;;35.80;37.70;;;;;;4941832;28;20039;-71
2024/01/21 09:14:43;;;;;;;3.80;0.70;;;35.60;38.00;;;;;;4938665;29;20118;-71
2024/01/21 09:17:11;;;;;;;2.60;0.68;;;35.70;37.70;;;;;;4947907;28;20031;-72
2024/01/21 09:19:38;;;;;;;3.38;0.77;;;35.80;37.80;;;;;;4935071;28;20031;-72
2024/01/21 09:22:06;;;;;;;3.20;0.75;;;35.80;38.00;;;;;;4938266;28;20104;-71
2024/01/21 09:24:33;;;;;;;4.63;0.60;;;35.50;38.20;;;;;;4945231;28;20075;-72
2024/01/21 09:27:00;;;;;;;4.25;1.00;;;35.20;39.00;;;;;;4954387;28;20484;-72
2024/01/21 09:29:28;;;;;;;3.22;1.02;;;34.90;39.30;;;;;;4936557;28;20525;-73
2024/01/21 09:31:58;;;;;;;2.10;0.88;;;34.50;40.10;;;;;;4944421;28;20123;-72
2024/01/21 09:34:26;;;;;;;5.28;0.98;;;34.30;40.00;;;;;;4935523;28;20080;-72
2024/01/21 09:36:53;;;;;;;2.97;0.70;;;34.20;40.10;;;;;;4948447;28;20028;-72
2024/01/21 09:39:21;;;;;;;2.88;0.90;;;34.10;40.40;;;;;;4942036;28;20039;-72
2024/01/21 09:41:50;;;;;;;2.35;0.90;;;34.00;40.80;;;;;;4936243;28;20027;-71
2024/01/21 09:44:26;;;;;;;6.93;1.00;;;33.80;40.80;;;;;;4939343;29;20020;-72
2024/01/21 09:46:55;;;;;;;3.28;0.60;;;33.70;41.30;;;;;;4938632;28;20051;-72
2024/01/21 09:49:24;;;;;;;4.57;0.80;;;33.50;41.80;;;;;;4936058;29;20086;-71
2024/01/21 09:51:52;;;;;;;3.60;0.70;;;33.40;41.50;;;;;;4943303;28;20450;-72
2024/01/21 09:54:21;;;;;;;2.85;0.52;;;33.40;41.40;;;;;;4950674;28;20138;-73
2024/01/21 09:56:49;;;;;;;4.13;0.65;;;33.20;42.20;;;;;;4938985;28;20027;-73
2024/01/21 09:59:18;;;;;;;9.70;0.90;;;33.20;42.10;;;;;;4948066;28;20032;-72
2024/01/21 10:01:45;;;;;;;5.18;0.82;;;33.20;42.80;;;;;;4945994;28;20028;-72
2024/01/21 10:04:15;;;;;;;5.00;0.73;;;33.10;42.60;;;;;;4933648;29;20027;-73
2024/01/21 10:06:43;;;;;;;2.97;0.82;;;33.00;42.40;;;;;;4941650;28;20043;-72
2024/01/21 10:09:19;;;;;;;3.72;0.80;;;33.00;42.80;;;;;;4945420;29;20038;-72
2024/01/21 10:11:53;;;;;;;5.65;0.80;;;33.00;42.50;;;;;;4950078;28;20031;-72
2024/01/21 10:14:21;;;;;;;4.63;0.90;;;33.10;42.60;;;;;;4942176;28;20092;-72
2024/01/21 10:16:49;;;;;;;2.25;0.50;;;33.10;42.70;;;;;;4952843;28;20039;-72
2024/01/21 10:19:30;;;;;;;4.10;0.90;;;33.10;42.70;;;;;;4947702;28;20520;-72
2024/01/21 10:22:10;;;;;;;3.90;0.80;;;32.90;43.00;;;;;;4941039;28;20023;-71
2024/01/21 10:24:38;;;;;;;2.70;1.10;;;32.70;43.50;;;;;;4941189;28;20135;-70
2024/01/21 10:27:09;;;;;;;3.97;1.00;;;32.60;43.50;;;;;;4952172;28;20437;-70
2024/01/21 10:29:42;;;;;;;2.42;0.98;;;32.80;43.50;;;;;;4950739;28;20094;-71
2024/01/21 10:32:11;;;;;;;2.40;1.00;;;32.70;43.60;;;;;;4956027;28;20393;-70
2024/01/21 10:34:44;;;;;;;2.83;1.10;;;32.50;44.30;;;;;;4956233;28;20054;-70
2024/01/21 10:37:17;;;;;;;2.80;1.35;;;32.30;44.30;;;;;;4951330;28;20028;-71
2024/01/21 10:39:46;;;;;;;2.72;0.68;;;32.30;44.70;;;;;;4952295;28;20035;-71
2024/01/21 10:42:17;;;;;;;7.45;0.93;;;32.20;44.70;;;;;;4951461;28;20039;-70
2024/01/21 10:44:46;;;;;;;4.35;0.80;;;32.10;44.90;;;;;;4941804;28;20040;-71
2024/01/21 10:47:15;;;;;;;3.58;1.15;;;32.00;45.00;;;;;;4956007;28;20047;-73
2024/01/21 10:49:44;;;;;;;3.08;1.02;;;31.90;45.60;;;;;;4944771;29;20035;-72
2024/01/21 10:52:14;;;;;;;3.28;0.80;;;31.70;46.20;;;;;;4937785;28;20024;-73
2024/01/21 10:54:42;;;;;;;1.33;0.68;;;31.70;45.70;;;;;;4939224;28;20489;-72
2024/01/21 10:57:10;;;;;;;2.78;0.70;;;31.60;45.90;;;;;;4937468;29;20100;-71
2024/01/21 10:59:38;;;;;;;3.03;0.75;;;31.50;46.80;;;;;;4943857;29;20046;-72
2024/01/21 11:02:06;;;;;;;2.25;0.70;;;31.40;46.50;;;;;;4940190;28;20042;-73
2024/01/21 11:04:35;;;;;;;4.32;1.10;;;31.30;46.60;;;;;;4944689;29;20023;-73
2024/01/21 11:07:08;;;;;;;4.30;0.70;;;31.20;47.10;;;;;;4943921;29;20039;-72
2024/01/21 11:09:36;;;;;;;5.22;1.20;;;31.20;47.10;;;;;;4942753;29;20481;-73
2024/01/21 11:12:04;;;;;;;7.20;1.05;;;31.20;47.10;;;;;;4952880;28;20035;-71
2024/01/21 11:14:39;;;;;;;4.57;1.00;;;31.20;47.30;;;;;;4949522;28;20031;-73
2024/01/21 11:17:12;;;;;;;2.67;1.20;;;31.10;47.60;;;;;;4940274;29;20369;-70
2024/01/21 11:19:44;;;;;;;4.30;1.20;;;31.00;47.80;;;;;;4956772;28;20035;-71
2024/01/21 11:22:12;;;;;;;4.70;1.42;;;30.90;47.80;;;;;;4939425;28;20035;-69
2024/01/21 11:24:40;;;;;;;3.60;1.08;;;30.70;49.20;;;;;;4949466;28;20031;-69
2024/01/21 11:27:19;;;;;;;3.47;1.25;;;30.50;49.70;;;;;;4942939;29;20062;-71
2024/01/21 11:29:50;;;;;;;5.15;1.58;;;30.50;50.30;;;;;;4944052;28;20031;-69
2024/01/21 11:32:28;;;;;;;19.02;4.20;;;30.80;51.40;;;;;;4935723;29;20039;-69
2024/01/21 11:35:04;;;;;;;28.30;5.18;;;30.40;57.20;;;;;;4936337;29;20030;-69
2024/01/21 11:37:32;;;;;;;30.35;6.63;;;29.70;60.50;;;;;;4939295;28;20039;-69
2024/01/21 11:40:02;;;;;;;36.95;6.75;;;29.20;64.10;;;;;;4935954;28;20032;-70
2024/01/21 11:42:34;;;;;;;41.80;7.00;;;28.60;67.50;;;;;;4939638;29;20027;-70
2024/01/21 11:45:06;;;;;;;38.75;8.23;;;28.20;71.50;;;;;;4941904;29;20533;-70
2024/01/21 11:47:35;;;;;;;34.00;6.45;;;27.60;76.80;;;;;;4940374;29;20484;-70
2024/01/21 11:50:02;;;;;;;34.35;7.50;;;27.20;83.00;;;;;;4945792;28;20058;-70
2024/01/21 11:52:30;;;;;;;48.58;7.93;;;26.70;89.30;;;;;;4941168;29;20420;-70
2024/01/21 11:54:59;;;;;;;45.58;7.80;;;26.50;91.70;;;;;;4947807;28;20035;-70
2024/01/21 11:57:27;;;;;;;49.25;8.10;;;26.40;93.00;;;;;;4944744;28;20039;-70
2024/01/21 11:59:55;;;;;;;42.72;8.20;;;26.20;94.00;;;;;;4937516;28;20035;-70
2024/01/21 12:02:24;;;;;;;48.17;8.45;;;26.20;94.50;;;;;;4942325;28;20020;-71
2024/01/21 12:04:54;;;;;;;41.05;7.88;;;26.10;94.90;;;;;;4939808;29;20023;-71
2024/01/21 12:07:22;;;;;;;39.92;8.30;;;26.10;95.20;;;;;;4936845;29;20506;-69
2024/01/21 12:09:49;;;;;;;44.42;7.13;;;25.90;95.10;;;;;;4937776;29;20039;-73
2024/01/21 12:12:17;;;;;;;38.67;6.97;;;25.80;95.10;;;;;;4944460;28;20031;-72
2024/01/21 12:14:45;;;;;;;31.40;6.35;;;25.70;95.20;;;;;;4939708;28;20039;-70
2024/01/21 12:17:12;;;;;;;38.47;7.03;;;25.60;95.10;;;;;;4941848;29;20027;-69
2024/01/21 12:19:40;;;;;;;34.88;7.47;;;25.40;95.30;;;;;;4937525;28;20398;-70
2024/01/21 12:22:07;;;;;;;43.53;6.60;;;25.30;95.40;;;;;;4939209;29;20481;-69
2024/01/21 12:24:40;;;;;;;46.00;7.55;;;25.30;95.60;;;;;;4938678;28;20038;-70
2024/01/21 12:27:09;;;;;;;30.17;5.97;;;25.30;95.60;;;;;;4943163;29;20065;-68
2024/01/21 12:29:37;;;;;;;36.45;6.35;;;25.30;95.50;;;;;;4943709;28;20089;-71
2024/01/21 12:32:08;;;;;;;38.35;5.60;;;25.20;95.40;;;;;;4935681;29;20024;-70
2024/01/21 12:34:36;;;;;;;37.30;6.22;;;25.20;95.60;;;;;;4938669;29;20125;-71
2024/01/21 12:37:06;;;;;;;35.38;6.30;;;25.10;95.60;;;;;;4939564;28;20042;-72
2024/01/21 12:39:34;;;;;;;41.10;7.07;;;25.20;95.50;;;;;;4942839;29;20027;-69
2024/01/21 12:42:01;;;;;;;26.67;6.28;;;25.10;95.70;;;;;;4949362;28;20066;-69
2024/01/21 12:44:29;;;;;;;37.13;7.28;;;24.90;96.00;;;;;;4939867;28;20064;-68
2024/01/21 12:46:57;;;;;;;39.10;6.78;;;24.80;96.30;;;;;;4955368;28;20043;-70
2024/01/21 12:49:24;;;;;;;30.88;6.95;;;24.80;96.20;;;;;;4939289;29;20055;-69